createdAt,value
2023-04-05T00:02:06.770Z,45.49
2023-04-05T00:04:33.444Z,44.50
2023-04-05T00:07:00.110Z,44.51
2023-04-05T00:09:26.647Z,44.44
2023-04-05T00:11:53.201Z,44.42
2023-04-05T00:14:19.747Z,45.48
2023-04-05T00:16:46.438Z,45.45
2023-04-05T00:19:13.150Z,45.59
2023-04-05T00:21:39.699Z,45.88
2023-04-05T00:24:06.277Z,45.14
2023-04-05T00:26:32.809Z,45.43
2023-04-05T00:28:59.423Z,44.85
2023-04-05T00:31:26.040Z,44.84
2023-04-05T00:33:52.664Z,44.97
2023-04-05T00:36:19.266Z,45.04
2023-04-05T00:38:45.878Z,44.95
2023-04-05T00:41:12.457Z,45.83
2023-04-05T00:43:39.165Z,46.70
2023-04-05T00:46:05.759Z,45.66
2023-04-05T00:48:32.342Z,45.99
2023-04-05T00:50:58.929Z,46.08
2023-04-05T00:53:25.788Z,45.53
2023-04-05T00:55:52.357Z,45.13
2023-04-05T00:58:18.966Z,45.86
2023-04-05T01:00:45.551Z,45.25
2023-04-05T01:03:12.107Z,45.36
2023-04-05T01:05:38.650Z,45.87
2023-04-05T01:08:05.200Z,45.86
2023-04-05T01:10:31.756Z,46.18
2023-04-05T01:12:58.351Z,46.08
2023-04-05T01:15:24.923Z,46.14
2023-04-05T01:17:51.626Z,45.88
2023-04-05T01:20:18.277Z,46.14
2023-04-05T01:22:44.841Z,45.73
2023-04-05T01:25:11.392Z,46.03
2023-04-05T01:27:37.980Z,46.12
2023-04-05T01:30:04.587Z,45.60
2023-04-05T01:32:31.316Z,46.24
2023-04-05T01:34:57.916Z,45.99
2023-04-05T01:37:24.504Z,46.07
2023-04-05T01:39:51.085Z,46.38
2023-04-05T01:42:17.622Z,46.47
2023-04-05T01:44:44.262Z,47.23
2023-04-05T01:47:10.926Z,50.32
2023-04-05T01:49:37.489Z,50.33
2023-04-05T01:52:04.043Z,49.83
2023-04-05T01:54:30.639Z,48.32
2023-04-05T01:56:57.183Z,47.68
2023-04-05T01:59:23.951Z,47.71
2023-04-05T02:01:50.890Z,47.58
2023-04-05T02:04:17.516Z,46.86
2023-04-05T02:06:44.265Z,47.58
2023-04-05T02:09:10.821Z,47.38
2023-04-05T02:11:37.381Z,47.68
2023-04-05T02:14:03.928Z,47.28
2023-04-05T02:16:30.610Z,47.36
2023-04-05T02:18:57.292Z,47.57
2023-04-05T02:21:23.957Z,47.30
2023-04-05T02:23:50.525Z,47.14
2023-04-05T02:26:17.205Z,47.45
2023-04-05T02:28:43.784Z,47.04
2023-04-05T02:31:10.482Z,46.79
2023-04-05T02:33:37.064Z,48.11
2023-04-05T02:36:03.659Z,48.80
2023-04-05T02:38:31.371Z,49.95
2023-04-05T02:40:57.932Z,48.86
2023-04-05T02:43:24.694Z,48.50
2023-04-05T02:45:51.693Z,48.05
2023-04-05T02:48:18.270Z,48.16
2023-04-05T02:50:44.849Z,48.28
2023-04-05T02:53:17.333Z,49.23
2023-04-05T02:55:43.885Z,49.09
2023-04-05T02:58:10.473Z,48.65
2023-04-05T03:00:37.035Z,48.92
2023-04-05T03:03:03.782Z,48.80
2023-04-05T03:05:30.488Z,49.37
2023-04-05T03:07:57.087Z,49.19
2023-04-05T03:10:23.670Z,49.26
2023-04-05T03:12:50.228Z,48.56
2023-04-05T03:15:16.877Z,49.13
2023-04-05T03:17:43.522Z,50.14
2023-04-05T03:20:10.527Z,49.75
2023-04-05T03:22:37.074Z,50.34
2023-04-05T03:25:03.852Z,49.65
2023-04-05T03:27:30.501Z,49.00
2023-04-05T03:29:59.120Z,49.08
2023-04-05T03:32:26.154Z,49.62
2023-04-05T03:34:52.820Z,49.14
2023-04-05T03:37:19.396Z,49.34
2023-04-05T03:39:45.958Z,48.70
2023-04-05T03:42:12.497Z,49.53
2023-04-05T03:44:39.048Z,49.16
2023-04-05T03:47:05.596Z,49.21
2023-04-05T03:49:32.141Z,49.50
2023-04-05T03:51:59.055Z,49.53
2023-04-05T03:54:25.607Z,49.32
2023-04-05T03:56:52.187Z,50.09
2023-04-05T03:59:18.835Z,49.97
2023-04-05T04:01:45.509Z,49.71
2023-04-05T04:04:12.106Z,49.60
2023-04-05T04:06:38.727Z,49.33
2023-04-05T04:09:05.281Z,49.40
2023-04-05T04:11:31.855Z,49.24
2023-04-05T04:13:58.444Z,49.37
2023-04-05T04:16:26.763Z,49.81
2023-04-05T04:18:55.249Z,51.86
2023-04-05T04:21:21.855Z,51.15
2023-04-05T04:23:48.385Z,51.53
2023-04-05T04:26:14.951Z,51.42
2023-04-05T04:28:41.506Z,50.92
2023-04-05T04:31:08.092Z,50.48
2023-04-05T04:33:34.658Z,50.55
2023-04-05T04:36:01.226Z,49.94
2023-04-05T04:38:27.783Z,50.10
2023-04-05T04:40:54.321Z,50.00
2023-04-05T04:43:20.902Z,49.81
2023-04-05T04:45:47.510Z,50.32
2023-04-05T04:48:14.078Z,50.20
2023-04-05T04:50:40.668Z,50.05
2023-04-05T04:53:07.210Z,50.16
2023-04-05T04:55:33.879Z,49.55
2023-04-05T04:58:00.538Z,49.82
2023-04-05T05:00:27.165Z,49.77
2023-04-05T05:02:53.832Z,50.09
2023-04-05T05:05:20.429Z,50.68
2023-04-05T05:07:47.002Z,51.22
2023-04-05T05:10:13.574Z,50.80
2023-04-05T05:12:40.247Z,50.31
2023-04-05T05:15:06.814Z,51.05
2023-04-05T05:17:33.404Z,51.42
2023-04-05T05:19:59.981Z,51.03
2023-04-05T05:22:26.561Z,50.28
2023-04-05T05:24:53.121Z,50.36
2023-04-05T05:27:19.641Z,50.43
2023-04-05T05:29:46.244Z,49.95
2023-04-05T05:32:12.779Z,49.98
2023-04-05T05:34:40.276Z,49.82
2023-04-05T05:37:06.807Z,50.18
2023-04-05T05:39:33.360Z,50.17
2023-04-05T05:41:59.922Z,49.39
2023-04-05T05:44:26.480Z,49.57
2023-04-05T05:46:53.102Z,49.17
2023-04-05T05:49:19.681Z,48.51
2023-04-05T05:51:46.261Z,48.15
2023-04-05T05:54:12.871Z,47.96
2023-04-05T05:56:39.432Z,47.19
2023-04-05T05:59:05.982Z,47.32
2023-04-05T06:01:32.597Z,47.50
2023-04-05T06:03:59.302Z,46.90
2023-04-05T06:06:26.066Z,46.09
2023-04-05T06:08:52.606Z,46.33
2023-04-05T06:11:19.173Z,45.99
2023-04-05T06:13:45.752Z,45.94
2023-04-05T06:16:12.393Z,45.42
2023-04-05T06:18:38.968Z,44.83
2023-04-05T06:21:05.621Z,45.16
2023-04-05T06:23:32.190Z,44.43
2023-04-05T06:25:58.736Z,44.94
2023-04-05T06:28:26.320Z,45.54
2023-04-05T06:30:53.061Z,45.68
2023-04-05T06:33:19.616Z,44.83
2023-04-05T06:35:46.230Z,44.64
2023-04-05T06:38:12.850Z,45.43
2023-04-05T06:40:39.640Z,45.20
2023-04-05T06:43:06.408Z,43.71
2023-04-05T06:45:33.061Z,42.82
2023-04-05T06:47:59.673Z,42.55
2023-04-05T06:50:26.295Z,43.11
2023-04-05T06:52:52.908Z,42.92
2023-04-05T06:55:19.593Z,41.66
2023-04-05T06:57:46.191Z,42.17
2023-04-05T07:00:12.746Z,44.41
2023-04-05T07:02:39.359Z,41.98
2023-04-05T07:05:05.985Z,41.16
2023-04-05T07:07:32.670Z,40.39
2023-04-05T07:09:59.218Z,39.61
2023-04-05T07:12:25.797Z,41.01
2023-04-05T07:14:52.659Z,41.15
2023-04-05T07:17:19.313Z,39.92
2023-04-05T07:19:45.945Z,40.47
2023-04-05T07:22:12.505Z,42.12
2023-04-05T07:24:39.320Z,41.67
2023-04-05T07:27:05.990Z,41.46
2023-04-05T07:29:32.882Z,40.40
2023-04-05T07:31:59.732Z,40.06
2023-04-05T07:34:26.313Z,40.76
2023-04-05T07:36:52.887Z,39.12
2023-04-05T07:39:19.608Z,40.50
2023-04-05T07:41:46.192Z,39.96
2023-04-05T07:44:12.747Z,40.17
2023-04-05T07:46:39.419Z,39.78
2023-04-05T07:49:06.035Z,39.94
2023-04-05T07:51:32.599Z,39.81
2023-04-05T07:54:00.708Z,38.76
2023-04-05T07:56:28.476Z,39.87
2023-04-05T07:58:55.106Z,38.92
2023-04-05T08:01:21.740Z,38.94
2023-04-05T08:03:48.406Z,38.89
2023-04-05T08:06:15.055Z,38.64
2023-04-05T08:08:41.712Z,38.44
2023-04-05T08:11:08.269Z,38.39
2023-04-05T08:13:34.858Z,39.05
2023-04-05T08:16:01.438Z,38.29
2023-04-05T08:18:28.393Z,37.61
2023-04-05T08:20:55.062Z,37.32
2023-04-05T08:23:21.628Z,36.86
2023-04-05T08:25:48.217Z,36.71
2023-04-05T08:28:14.762Z,37.83
2023-04-05T08:30:41.635Z,37.70
2023-04-05T08:33:08.454Z,37.24
2023-04-05T08:35:35.129Z,37.94
2023-04-05T08:38:01.704Z,37.22
2023-04-05T08:40:28.254Z,39.25
2023-04-05T08:42:54.818Z,37.37
2023-04-05T08:45:21.382Z,36.58
2023-04-05T08:47:47.956Z,35.59
2023-04-05T08:50:14.535Z,35.59
2023-04-05T08:52:41.105Z,35.95
2023-04-05T08:55:07.711Z,35.70
2023-04-05T08:57:34.339Z,35.41
2023-04-05T09:00:00.884Z,35.07
2023-04-05T09:02:27.478Z,34.74
2023-04-05T09:04:54.070Z,35.04
2023-04-05T09:07:20.625Z,34.38
2023-04-05T09:09:47.221Z,33.56
2023-04-05T09:12:13.804Z,32.85
2023-04-05T09:14:40.377Z,32.02
2023-04-05T09:17:07.040Z,31.99
2023-04-05T09:19:33.823Z,33.18
2023-04-05T09:22:00.398Z,32.72
2023-04-05T09:24:26.962Z,31.70
2023-04-05T09:26:53.538Z,31.52
2023-04-05T09:29:20.079Z,30.92
2023-04-05T09:31:46.702Z,31.07
2023-04-05T09:34:13.340Z,28.79
2023-04-05T09:36:39.907Z,30.73
2023-04-05T09:39:06.498Z,29.19
2023-04-05T09:41:33.058Z,29.60
2023-04-05T09:43:59.625Z,30.84
2023-04-05T09:46:26.241Z,29.39
2023-04-05T09:48:52.855Z,27.48
2023-04-05T09:51:19.472Z,29.31
2023-04-05T09:53:46.045Z,28.73
2023-04-05T09:56:12.579Z,28.79
2023-04-05T09:58:39.519Z,27.80
2023-04-05T10:03:40.418Z,28.64
2023-04-05T10:06:07.037Z,28.52
2023-04-05T10:08:33.563Z,26.93
2023-04-05T10:11:00.130Z,28.99
2023-04-05T10:13:26.670Z,27.79
2023-04-05T10:15:53.311Z,28.61
2023-04-05T10:18:19.927Z,27.19
2023-04-05T10:20:46.536Z,26.70
2023-04-05T10:23:13.117Z,26.17
2023-04-05T10:25:39.705Z,29.47
2023-04-05T10:28:06.334Z,28.87
2023-04-05T10:30:32.895Z,26.91
2023-04-05T10:32:59.544Z,26.48
2023-04-05T10:35:26.130Z,26.53
2023-04-05T10:37:53.181Z,27.58
2023-04-05T10:40:19.748Z,26.54
2023-04-05T10:42:46.301Z,27.67
2023-04-05T10:45:12.913Z,27.21
2023-04-05T10:47:39.541Z,24.83
2023-04-05T10:50:06.251Z,27.06
2023-04-05T10:52:33.129Z,26.53
2023-04-05T10:54:59.753Z,27.03
2023-04-05T10:57:26.562Z,26.34
2023-04-05T10:59:53.355Z,26.35
2023-04-05T11:02:20.053Z,25.78
2023-04-05T11:04:46.780Z,25.74
2023-04-05T11:07:13.429Z,26.00
2023-04-05T11:09:39.971Z,24.95
2023-04-05T11:12:06.541Z,28.09
2023-04-05T11:14:33.152Z,27.56
2023-04-05T11:16:59.899Z,27.08
2023-04-05T11:19:26.601Z,26.70
2023-04-05T11:21:53.220Z,24.89
2023-04-05T11:24:19.820Z,25.13
2023-04-05T11:26:46.375Z,27.40
2023-04-05T11:29:12.940Z,25.92
2023-04-05T11:31:39.688Z,24.47
2023-04-05T11:34:06.304Z,24.71
2023-04-05T11:36:32.850Z,23.86
2023-04-05T11:38:59.444Z,23.36
2023-04-05T11:41:26.008Z,23.71
2023-04-05T11:43:52.579Z,25.11
2023-04-05T11:46:19.374Z,24.11
2023-04-05T11:48:45.978Z,24.52
2023-04-05T11:51:12.562Z,25.51
2023-04-05T11:53:39.105Z,25.37
2023-04-05T11:56:05.678Z,26.61
2023-04-05T11:58:32.310Z,24.19
2023-04-05T12:01:00.042Z,25.81
2023-04-05T12:03:26.705Z,27.51
2023-04-05T12:05:53.327Z,25.65
2023-04-05T12:08:20.135Z,24.92
2023-04-05T12:10:46.749Z,24.94
2023-04-05T12:13:13.449Z,23.89
2023-04-05T12:15:40.381Z,23.99
2023-04-05T12:18:07.383Z,24.44
2023-04-05T12:20:34.026Z,23.79
2023-04-05T12:23:00.624Z,23.18
2023-04-05T12:25:27.229Z,22.78
2023-04-05T12:27:54.022Z,24.08
2023-04-05T12:30:20.920Z,24.06
2023-04-05T12:32:47.709Z,24.47
2023-04-05T12:35:14.488Z,24.99
2023-04-05T12:37:41.145Z,23.75
2023-04-05T12:40:07.712Z,23.80
2023-04-05T12:42:34.335Z,23.24
2023-04-05T12:45:00.942Z,22.84
2023-04-05T12:47:27.581Z,22.06
2023-04-05T12:49:54.791Z,22.90
2023-04-05T12:52:21.342Z,22.88
2023-04-05T12:54:47.917Z,24.59
2023-04-05T12:57:14.467Z,24.86
2023-04-05T12:59:41.057Z,26.24
2023-04-05T13:02:07.679Z,27.08
2023-04-05T13:04:34.285Z,27.26
2023-04-05T13:07:00.855Z,27.42
2023-04-05T13:09:27.574Z,25.49
2023-04-05T13:11:54.129Z,24.10
2023-04-05T13:14:20.730Z,24.00
2023-04-05T13:16:47.279Z,24.52
2023-04-05T13:19:13.803Z,23.74
2023-04-05T13:21:40.422Z,24.75
2023-04-05T13:24:06.974Z,25.13
2023-04-05T13:26:34.026Z,25.58
2023-04-05T13:29:00.594Z,26.16
2023-04-05T13:31:27.324Z,26.00
2023-04-05T13:33:53.943Z,26.04
2023-04-05T13:36:20.519Z,26.55
2023-04-05T13:38:47.099Z,25.24
2023-04-05T13:41:13.715Z,26.88
2023-04-05T13:43:40.269Z,26.21
2023-04-05T13:46:06.918Z,29.46
2023-04-05T13:48:33.572Z,28.63
2023-04-05T13:51:00.167Z,28.06
2023-04-05T13:53:28.450Z,28.90
2023-04-05T13:55:55.356Z,27.64
2023-04-05T13:58:22.063Z,27.56
2023-04-05T14:00:48.638Z,26.96
2023-04-05T14:03:15.333Z,27.96
2023-04-05T14:05:41.962Z,25.87
2023-04-05T14:08:08.572Z,25.98
2023-04-05T14:10:35.133Z,28.22
2023-04-05T14:13:01.721Z,26.67
2023-04-05T14:15:28.543Z,26.70
2023-04-05T14:17:56.345Z,25.73
2023-04-05T14:20:22.917Z,25.95
2023-04-05T14:22:49.508Z,26.57
2023-04-05T14:25:16.154Z,26.52
2023-04-05T14:27:42.876Z,26.88
2023-04-05T14:30:09.497Z,25.57
2023-04-05T14:32:36.074Z,26.80
2023-04-05T14:35:02.626Z,27.78
2023-04-05T14:37:29.210Z,26.50
2023-04-05T14:39:55.817Z,27.85
2023-04-05T14:42:22.398Z,27.43
2023-04-05T14:44:48.967Z,26.29
2023-04-05T14:47:15.931Z,26.31
2023-04-05T14:49:42.488Z,27.02
2023-04-05T14:52:09.048Z,28.08
2023-04-05T14:54:35.600Z,27.01
2023-04-05T14:57:02.136Z,27.80
2023-04-05T14:59:28.797Z,26.61
2023-04-05T15:01:55.395Z,26.13
2023-04-05T15:04:21.940Z,26.36
2023-04-05T15:06:48.553Z,25.33
2023-04-05T15:09:15.127Z,26.13
2023-04-05T15:11:41.810Z,26.53
2023-04-05T15:14:15.373Z,26.82
2023-04-05T15:16:47.895Z,25.72
2023-04-05T15:19:14.574Z,25.37
2023-04-05T15:21:41.396Z,25.51
2023-04-05T15:24:07.999Z,26.05
2023-04-05T15:26:34.567Z,27.81
2023-04-05T15:29:01.122Z,27.66
2023-04-05T15:31:27.740Z,28.57
2023-04-05T15:33:54.313Z,28.42
2023-04-05T15:36:20.934Z,27.92
2023-04-05T15:38:47.601Z,28.40
2023-04-05T15:41:14.280Z,29.42
2023-04-05T15:43:40.858Z,29.00
2023-04-05T15:46:07.474Z,29.95
2023-04-05T15:48:34.014Z,28.62
2023-04-05T15:51:00.728Z,28.69
2023-04-05T15:53:27.313Z,29.14
2023-04-05T15:55:53.870Z,29.11
2023-04-05T15:58:20.408Z,29.29
2023-04-05T16:00:46.980Z,29.95
2023-04-05T16:03:14.497Z,29.68
2023-04-05T16:05:41.270Z,29.06
2023-04-05T16:08:07.830Z,29.10
2023-04-05T16:10:34.698Z,30.15
2023-04-05T16:13:01.278Z,29.98
2023-04-05T16:15:27.825Z,29.35
2023-04-05T16:17:54.412Z,29.14
2023-04-05T16:20:20.964Z,29.07
2023-04-05T16:22:47.546Z,29.42
2023-04-05T16:25:14.115Z,29.75
2023-04-05T16:27:40.665Z,29.37
2023-04-05T16:30:07.234Z,29.38
2023-04-05T16:32:33.879Z,30.60
2023-04-05T16:35:00.492Z,29.20
2023-04-05T16:37:27.135Z,29.82
2023-04-05T16:39:53.708Z,30.96
2023-04-05T16:42:20.343Z,30.82
2023-04-05T16:44:46.957Z,30.92
2023-04-05T16:47:13.865Z,31.04
2023-04-05T16:49:40.465Z,30.90
2023-04-05T16:52:07.065Z,31.21
2023-04-05T16:54:33.637Z,30.40
2023-04-05T16:57:00.217Z,31.68
2023-04-05T16:59:27.809Z,31.92
2023-04-05T17:01:54.400Z,31.65
2023-04-05T17:04:20.968Z,31.45
2023-04-05T17:06:47.539Z,31.69
2023-04-05T17:09:14.096Z,31.49
2023-04-05T17:11:40.649Z,31.41
2023-04-05T17:14:07.258Z,32.10
2023-04-05T17:16:33.798Z,31.79
2023-04-05T17:19:00.442Z,32.09
2023-04-05T17:21:27.070Z,31.50
2023-04-05T17:23:53.677Z,31.86
2023-04-05T17:26:20.217Z,32.34
2023-04-05T17:28:46.766Z,33.29
2023-04-05T17:31:13.400Z,33.36
2023-04-05T17:33:39.969Z,34.20
2023-04-05T17:36:06.626Z,32.96
2023-04-05T17:38:33.193Z,32.29
2023-04-05T17:40:59.747Z,31.98
2023-04-05T17:43:26.334Z,32.49
2023-04-05T17:45:52.857Z,32.71
2023-04-05T17:48:19.555Z,32.71
2023-04-05T17:50:46.189Z,33.17
2023-04-05T17:53:12.785Z,31.85
2023-04-05T17:55:39.378Z,32.49
2023-04-05T17:58:05.933Z,31.78
2023-04-05T18:00:32.468Z,31.16
2023-04-05T18:03:04.777Z,31.26
2023-04-05T18:05:34.362Z,32.68
2023-04-05T18:08:00.922Z,32.44
2023-04-05T18:10:27.495Z,31.99
2023-04-05T18:12:54.037Z,31.98
2023-04-05T18:15:20.972Z,32.02
2023-04-05T18:17:47.653Z,31.64
2023-04-05T18:20:14.272Z,31.75
2023-04-05T18:22:40.810Z,31.92
2023-04-05T18:25:07.368Z,32.34
2023-04-05T18:27:33.925Z,33.96
2023-04-05T18:30:00.491Z,34.08
2023-04-05T18:32:27.122Z,33.85
2023-04-05T18:34:53.774Z,33.34
2023-04-05T18:37:22.396Z,33.33
2023-04-05T18:39:48.941Z,33.85
2023-04-05T18:42:15.514Z,34.46
2023-04-05T18:44:42.066Z,34.13
2023-04-05T18:47:08.626Z,34.32
2023-04-05T18:49:35.258Z,33.68
2023-04-05T18:52:02.061Z,33.50
2023-04-05T18:54:28.623Z,33.87
2023-04-05T18:56:55.193Z,33.72
2023-04-05T18:59:21.789Z,34.15
2023-04-05T19:01:48.518Z,33.77
2023-04-05T19:04:15.133Z,34.01
2023-04-05T19:06:41.682Z,34.16
2023-04-05T19:09:08.704Z,34.14
2023-04-05T19:11:35.449Z,34.21
2023-04-05T19:14:02.020Z,33.78
2023-04-05T19:16:28.781Z,33.71
2023-04-05T19:18:55.718Z,33.78
2023-04-05T19:21:22.431Z,34.60
2023-04-05T19:23:49.061Z,34.61
2023-04-05T19:26:15.639Z,34.56
2023-04-05T19:28:42.201Z,34.40
2023-04-05T19:31:08.835Z,34.94
2023-04-05T19:33:35.435Z,35.36
2023-04-05T19:36:02.131Z,35.20
2023-04-05T19:38:29.006Z,34.90
2023-04-05T19:40:55.671Z,35.40
2023-04-05T19:43:22.212Z,35.49
2023-04-05T19:45:48.797Z,35.83
2023-04-05T19:48:15.339Z,36.12
2023-04-05T19:50:42.204Z,36.08
2023-04-05T19:53:08.862Z,36.62
2023-04-05T19:55:35.429Z,36.76
2023-04-05T19:58:02.019Z,36.63
2023-04-05T20:00:28.589Z,36.88
2023-04-05T20:02:55.210Z,36.60
2023-04-05T20:05:21.775Z,37.08
2023-04-05T20:07:48.364Z,36.24
2023-04-05T20:10:15.484Z,36.64
2023-04-05T20:12:42.050Z,37.93
2023-04-05T20:15:08.740Z,37.75
2023-04-05T20:17:35.343Z,37.75
2023-04-05T20:20:02.068Z,37.68
2023-04-05T20:22:28.670Z,38.63
2023-04-05T20:24:55.223Z,38.35
2023-04-05T20:27:21.792Z,38.65
2023-04-05T20:29:48.366Z,38.61
2023-04-05T20:32:15.125Z,38.59
2023-04-05T20:34:41.700Z,38.96
2023-04-05T20:37:08.274Z,38.79
2023-04-05T20:39:38.920Z,38.87
2023-04-05T20:42:05.505Z,39.04
2023-04-05T20:44:32.157Z,39.28
2023-04-05T20:46:59.725Z,38.64
2023-04-05T20:49:26.275Z,38.22
2023-04-05T20:51:52.877Z,38.77
2023-04-05T20:54:19.433Z,38.64
2023-04-05T20:56:46.024Z,38.40
2023-04-05T20:59:12.827Z,39.47
2023-04-05T21:01:39.481Z,39.88
2023-04-05T21:04:06.066Z,40.44
2023-04-05T21:06:32.752Z,40.40
2023-04-05T21:08:59.290Z,40.68
2023-04-05T21:11:26.093Z,40.67
2023-04-05T21:13:53.027Z,40.57
2023-04-05T21:16:19.621Z,40.79
2023-04-05T21:18:47.467Z,41.13
2023-04-05T21:21:14.036Z,40.85
2023-04-05T21:23:40.613Z,40.98
2023-04-05T21:26:07.402Z,42.11
2023-04-05T21:28:34.105Z,41.77
2023-04-05T21:31:00.709Z,40.76
2023-04-05T21:33:27.292Z,41.13
2023-04-05T21:35:53.856Z,40.91
2023-04-05T21:38:20.643Z,41.92
2023-04-05T21:40:47.330Z,41.90
2023-04-05T21:43:13.898Z,42.33
2023-04-05T21:45:40.459Z,42.67
2023-04-05T21:48:07.147Z,41.51
2023-04-05T21:50:33.727Z,41.24
2023-04-05T21:53:00.274Z,40.94
2023-04-05T21:55:26.897Z,41.28
2023-04-05T21:57:53.482Z,41.62
2023-04-05T22:00:20.065Z,41.12
2023-04-05T22:02:46.675Z,42.03
2023-04-05T22:05:17.592Z,41.97
2023-04-05T22:07:52.631Z,41.62
2023-04-05T22:10:19.380Z,41.79
2023-04-05T22:12:45.910Z,41.71
2023-04-05T22:15:12.483Z,41.64
2023-04-05T22:17:39.053Z,43.11
2023-04-05T22:20:05.627Z,42.67
2023-04-05T22:22:32.199Z,43.58
2023-04-05T22:24:58.781Z,43.44
2023-04-05T22:27:25.346Z,42.31
2023-04-05T22:29:51.902Z,43.06
2023-04-05T22:32:18.446Z,42.84
2023-04-05T22:34:45.009Z,44.28
2023-04-05T22:37:11.576Z,44.21
2023-04-05T22:39:38.138Z,43.74
2023-04-05T22:42:04.693Z,43.48
2023-04-05T22:44:31.242Z,43.26
2023-04-05T22:46:57.807Z,43.30
2023-04-05T22:49:24.397Z,43.45
2023-04-05T22:51:50.973Z,43.02
2023-04-05T22:54:18.063Z,43.57
2023-04-05T22:56:44.773Z,43.49
2023-04-05T22:59:11.568Z,43.17
2023-04-05T23:01:38.332Z,43.20
2023-04-05T23:04:04.984Z,44.08
2023-04-05T23:06:31.663Z,43.71
2023-04-05T23:08:58.281Z,43.63
2023-04-05T23:11:24.862Z,44.00
2023-04-05T23:13:51.477Z,43.66
2023-04-05T23:16:18.111Z,43.57
2023-04-05T23:18:44.723Z,43.91
2023-04-05T23:21:11.318Z,43.40
2023-04-05T23:23:37.913Z,44.65
2023-04-05T23:26:04.472Z,45.58
2023-04-05T23:28:31.042Z,44.37
2023-04-05T23:30:57.668Z,44.91
2023-04-05T23:33:24.302Z,44.10
2023-04-05T23:35:50.900Z,44.57
2023-04-05T23:38:17.541Z,44.29
2023-04-05T23:40:44.250Z,45.54
2023-04-05T23:43:10.809Z,45.67
2023-04-05T23:45:37.437Z,45.02
2023-04-05T23:48:04.123Z,44.78
2023-04-05T23:50:30.857Z,44.15
2023-04-05T23:52:57.413Z,44.48
2023-04-05T23:55:23.994Z,44.78
2023-04-05T23:57:50.525Z,44.62
